KDDC/DDC METAR and TAF weather

Enter ICAO airport designator
Station Type Date Time Source
KDDC METAR 2020/09/25 04:52 UTC NOAA

KDDC 250452Z AUTO 19008KT 7SM CLR 20/12 A2986 RMK AO2 SLP080 T02000117


Station Type Date Time Source
KDDC Decoded METAR 2020/09/25 04:52 UTC NOAA

DODGE CITY REGIONAL AIRPORT, KS, United States (KDDC) 37-46N 99-58W 789M
Sep 25, 2020 - 12:52 AM EDT / 2020.09.25 0452 UTC
Wind: from the S (190 degrees) at 9 MPH (8 KT):0
Visibility: 7 mile(s):0
Sky conditions: clear
Temperature: 68.0 F (20.0 C)
Dew Point: 53.1 F (11.7 C)
Relative Humidity: 58%
Pressure (altimeter): 29.86 in. Hg (1011 hPa)
ob: KDDC 250452Z AUTO 19008KT 7SM CLR 20/12 A2986 RMK AO2 SLP080 T02000117
cycle: 5

Station Type Date Time Source
KDDC TAF 2020/09/25 06:22 UTC NOAA

TAF KDDC 250520Z 2506/2606 20008KT P6SM SKC
FM251500 20012G22KT P6SM SKC
FM260000 16010KT P6SM SKC

Example: see airport list